createdAt,value
2023-06-16T00:01:10.231Z,99741.41
2023-06-16T00:03:37.248Z,99737.84
2023-06-16T00:06:06.119Z,99743.34
2023-06-16T00:08:33.053Z,99738.66
2023-06-16T00:11:00.487Z,99739.78
2023-06-16T00:13:27.412Z,99741.97
2023-06-16T00:15:55.697Z,99746.66
2023-06-16T00:18:22.968Z,99746.72
2023-06-16T00:20:49.893Z,99734.47
2023-06-16T00:23:20.677Z,99731.78
2023-06-16T00:25:48.815Z,99737.19
2023-06-16T00:28:15.732Z,99732.44
2023-06-16T00:30:44.132Z,99728.97
2023-06-16T00:33:12.576Z,99733.66
2023-06-16T00:35:39.845Z,99731.88
2023-06-16T00:38:06.824Z,99734.59
2023-06-16T00:40:33.858Z,99731.47
2023-06-16T00:43:00.878Z,99730.47
2023-06-16T00:45:29.820Z,99734.00
2023-06-16T00:47:57.664Z,99728.66
2023-06-16T00:50:28.103Z,99725.53
2023-06-16T00:52:56.440Z,99728.66
2023-06-16T00:55:23.839Z,99730.72
2023-06-16T00:57:52.002Z,99724.44
2023-06-16T01:00:20.261Z,99728.00
2023-06-16T01:02:50.561Z,99719.44
2023-06-16T01:05:25.481Z,99732.78
2023-06-16T01:08:07.860Z,99728.81
2023-06-16T01:10:46.048Z,99732.97
2023-06-16T01:13:25.461Z,99721.63
2023-06-16T01:15:54.217Z,99735.13
2023-06-16T01:18:25.178Z,99733.06
2023-06-16T01:21:00.756Z,99735.13
2023-06-16T01:23:45.269Z,99730.91
2023-06-16T01:26:14.612Z,99734.38
2023-06-16T01:28:43.874Z,99734.13
2023-06-16T01:31:13.889Z,99742.03
2023-06-16T01:33:43.070Z,99739.25
2023-06-16T01:36:10.722Z,99739.41
2023-06-16T01:38:39.762Z,99747.66
2023-06-16T01:41:07.922Z,99748.88
2023-06-16T01:43:37.193Z,99751.69
2023-06-16T01:46:05.714Z,99749.84
2023-06-16T01:48:33.531Z,99735.47
2023-06-16T01:51:03.031Z,99736.56
2023-06-16T01:53:30.027Z,99736.75
2023-06-16T01:55:57.187Z,99733.22
2023-06-16T01:58:27.019Z,99723.50
2023-06-16T02:01:24.752Z,99727.69
2023-06-16T02:04:00.146Z,99734.06
2023-06-16T02:06:33.261Z,99732.41
2023-06-16T02:09:05.718Z,99731.41
2023-06-16T02:11:34.362Z,99749.31
2023-06-16T02:14:02.753Z,99756.25
2023-06-16T02:16:36.860Z,99746.75
2023-06-16T02:19:03.962Z,99750.56
2023-06-16T02:21:31.200Z,99742.84
2023-06-16T02:23:58.205Z,99741.09
2023-06-16T02:26:25.411Z,99737.91
2023-06-16T02:28:52.852Z,99738.78
2023-06-16T02:31:20.159Z,99742.44
2023-06-16T02:33:51.433Z,99738.53
2023-06-16T02:36:18.431Z,99737.91
2023-06-16T02:38:45.558Z,99747.06
2023-06-16T02:41:12.554Z,99746.06
2023-06-16T02:43:39.539Z,99742.75
2023-06-16T02:46:07.888Z,99747.06
2023-06-16T02:48:35.185Z,99755.06
2023-06-16T02:51:03.610Z,99748.63
2023-06-16T02:53:30.711Z,99744.75
2023-06-16T02:56:00.739Z,99750.06
2023-06-16T02:58:30.074Z,99752.63
2023-06-16T03:00:56.998Z,99752.22
2023-06-16T03:03:53.007Z,99751.56
2023-06-16T03:06:30.332Z,99745.38
2023-06-16T03:09:54.844Z,99744.13
2023-06-16T03:12:29.845Z,99747.59
2023-06-16T03:15:14.028Z,99744.75
2023-06-16T03:17:48.770Z,99749.09
2023-06-16T03:20:34.410Z,99756.78
2023-06-16T03:23:43.638Z,99750.81
2023-06-16T03:26:12.054Z,99752.69
2023-06-16T03:28:58.229Z,99753.63
2023-06-16T03:31:27.502Z,99759.16
2023-06-16T03:33:56.798Z,99757.16
2023-06-16T03:36:27.717Z,99757.31
2023-06-16T03:38:56.171Z,99760.25
2023-06-16T03:41:23.704Z,99767.69
2023-06-16T03:43:50.861Z,99763.34
2023-06-16T03:46:18.306Z,99766.66
2023-06-16T03:48:45.934Z,99762.47
2023-06-16T03:51:12.986Z,99767.00
2023-06-16T03:53:40.489Z,99757.72
2023-06-16T03:56:09.569Z,99765.09
2023-06-16T03:58:37.622Z,99759.16
2023-06-16T04:01:05.010Z,99758.97
2023-06-16T04:03:34.931Z,99765.06
2023-06-16T04:06:03.800Z,99769.59
2023-06-16T04:08:31.343Z,99775.00
2023-06-16T04:10:58.298Z,99768.81
2023-06-16T04:13:27.782Z,99767.16
2023-06-16T04:15:54.679Z,99773.19
2023-06-16T04:18:21.648Z,99776.69
2023-06-16T04:20:48.666Z,99777.44
2023-06-16T04:23:16.716Z,99776.72
2023-06-16T04:25:43.839Z,99773.97
2023-06-16T04:28:10.760Z,99768.13
2023-06-16T04:30:39.357Z,99761.69
2023-06-16T04:33:06.758Z,99772.47
2023-06-16T04:35:35.069Z,99771.06
2023-06-16T04:38:03.949Z,99785.72
2023-06-16T04:40:32.634Z,99781.31
2023-06-16T04:42:59.817Z,99778.75
2023-06-16T04:45:28.263Z,99780.06
2023-06-16T04:47:56.704Z,99780.06
2023-06-16T04:50:24.026Z,99781.44
2023-06-16T04:52:51.633Z,99772.66
2023-06-16T04:55:19.921Z,99764.09
2023-06-16T04:57:46.935Z,99770.66
2023-06-16T05:00:15.050Z,99778.22
2023-06-16T05:02:43.114Z,99778.19
2023-06-16T05:05:11.520Z,99775.25
2023-06-16T05:07:38.683Z,99776.31
2023-06-16T05:10:09.231Z,99769.78
2023-06-16T05:12:37.598Z,99771.66
2023-06-16T05:15:06.837Z,99770.06
2023-06-16T05:17:35.041Z,99778.91
2023-06-16T05:20:02.172Z,99782.69
2023-06-16T05:22:31.603Z,99778.56
2023-06-16T05:24:58.656Z,99778.78
2023-06-16T05:27:26.164Z,99781.28
2023-06-16T05:29:59.331Z,99777.41
2023-06-16T05:32:31.726Z,99775.09
2023-06-16T05:35:00.383Z,99774.91
2023-06-16T05:37:28.875Z,99783.44
2023-06-16T05:39:57.335Z,99773.88
2023-06-16T05:42:25.271Z,99778.47
2023-06-16T05:44:53.102Z,99769.41
2023-06-16T05:47:20.592Z,99772.28
2023-06-16T05:49:49.348Z,99769.31
2023-06-16T05:52:17.146Z,99780.34
2023-06-16T05:54:44.788Z,99780.38
2023-06-16T05:57:19.946Z,99772.66
2023-06-16T05:59:47.084Z,99787.00
2023-06-16T06:02:14.185Z,99788.44
2023-06-16T06:04:43.871Z,99778.53
2023-06-16T06:07:12.557Z,99775.00
2023-06-16T06:09:40.064Z,99781.00
2023-06-16T06:12:09.794Z,99787.91
2023-06-16T06:14:39.651Z,99786.94
2023-06-16T06:17:07.359Z,99792.66
2023-06-16T06:19:34.401Z,99793.13
2023-06-16T06:22:03.445Z,99781.16
2023-06-16T06:24:31.114Z,99791.41
2023-06-16T06:26:59.908Z,99789.25
2023-06-16T06:29:27.112Z,99789.63
2023-06-16T06:31:55.386Z,99788.91
2023-06-16T06:34:22.638Z,99799.84
2023-06-16T06:36:49.824Z,99799.16
2023-06-16T06:39:18.422Z,99801.16
2023-06-16T06:41:49.629Z,99798.81
2023-06-16T06:44:22.446Z,99805.38
2023-06-16T06:46:50.518Z,99797.16
2023-06-16T06:49:20.219Z,99801.75
2023-06-16T06:51:47.153Z,99801.56
2023-06-16T06:54:16.756Z,99799.03
2023-06-16T06:56:43.702Z,99803.19
2023-06-16T06:59:10.793Z,99811.16
2023-06-16T07:01:39.036Z,99808.41
2023-06-16T07:04:08.282Z,99815.00
2023-06-16T07:06:36.912Z,99815.78
2023-06-16T07:09:04.100Z,99824.72
2023-06-16T07:11:31.026Z,99825.84
2023-06-16T07:13:58.560Z,99824.81
2023-06-16T07:16:25.568Z,99828.69
2023-06-16T07:18:52.618Z,99820.91
2023-06-16T07:21:20.006Z,99827.25
2023-06-16T07:23:48.319Z,99829.34
2023-06-16T07:26:15.280Z,99834.31
2023-06-16T07:28:42.177Z,99827.53
2023-06-16T07:31:09.106Z,99827.03
2023-06-16T07:33:35.989Z,99831.78
2023-06-16T07:36:03.863Z,99826.31
2023-06-16T07:38:30.827Z,99835.00
2023-06-16T07:40:59.325Z,99836.47
2023-06-16T07:43:26.300Z,99830.84
2023-06-16T07:45:53.343Z,99829.41
2023-06-16T07:48:20.279Z,99826.50
2023-06-16T07:50:47.358Z,99825.72
2023-06-16T07:53:14.379Z,99831.34
2023-06-16T07:55:41.556Z,99825.78
2023-06-16T07:58:09.933Z,99828.69
2023-06-16T08:00:37.166Z,99820.84
2023-06-16T08:03:04.416Z,99816.78
2023-06-16T08:05:31.397Z,99821.09
2023-06-16T08:07:58.384Z,99823.63
2023-06-16T08:10:25.353Z,99815.47
2023-06-16T08:12:52.362Z,99809.34
2023-06-16T08:15:21.110Z,99821.41
2023-06-16T08:17:48.286Z,99818.81
2023-06-16T08:20:15.338Z,99816.31
2023-06-16T08:22:42.190Z,99817.88
2023-06-16T08:25:10.434Z,99819.47
2023-06-16T08:27:40.334Z,99811.19
2023-06-16T08:30:08.543Z,99810.31
2023-06-16T08:32:38.628Z,99810.16
2023-06-16T08:35:07.339Z,99808.94
2023-06-16T08:37:34.167Z,99809.91
2023-06-16T08:40:01.155Z,99802.03
2023-06-16T08:42:31.590Z,99804.72
2023-06-16T08:45:01.318Z,99795.22
2023-06-16T08:47:28.372Z,99800.28
2023-06-16T08:49:56.917Z,99792.75
2023-06-16T08:52:34.805Z,99798.34
2023-06-16T08:55:13.344Z,99800.66
2023-06-16T08:57:45.651Z,99798.75
2023-06-16T09:00:13.900Z,99788.53
2023-06-16T09:02:42.969Z,99780.50
2023-06-16T09:05:13.362Z,99780.50
2023-06-16T09:07:40.414Z,99782.66
2023-06-16T09:10:08.896Z,99786.03
2023-06-16T09:13:34.121Z,99779.53
2023-06-16T09:16:01.548Z,99779.63
2023-06-16T09:18:37.706Z,99788.63
2023-06-16T09:21:07.795Z,99781.81
2023-06-16T09:23:35.163Z,99786.19
2023-06-16T09:26:10.443Z,99775.84
2023-06-16T09:28:37.874Z,99778.31
2023-06-16T09:31:12.383Z,99781.28
2023-06-16T09:33:40.264Z,99772.81
2023-06-16T09:36:09.640Z,99777.75
2023-06-16T09:38:37.803Z,99771.16
2023-06-16T09:41:09.191Z,99775.69
2023-06-16T09:43:38.469Z,99772.19
2023-06-16T09:46:09.492Z,99772.31
2023-06-16T09:48:46.264Z,99760.69
2023-06-16T09:51:17.872Z,99769.19
2023-06-16T09:53:45.649Z,99775.09
2023-06-16T09:56:15.076Z,99773.44
2023-06-16T09:58:42.944Z,99766.41
2023-06-16T10:01:11.105Z,99766.28
2023-06-16T10:03:39.314Z,99764.03
2023-06-16T10:06:16.711Z,99755.22
2023-06-16T10:08:48.704Z,99753.78
2023-06-16T10:11:17.569Z,99756.69
2023-06-16T10:13:51.335Z,99755.66
2023-06-16T10:16:24.574Z,99752.81
2023-06-16T10:18:55.187Z,99753.75
2023-06-16T10:21:23.642Z,99752.81
2023-06-16T10:23:52.965Z,99755.06
2023-06-16T10:26:21.324Z,99751.50
2023-06-16T10:28:49.813Z,99745.88
2023-06-16T10:31:16.891Z,99743.03
2023-06-16T10:33:54.075Z,99751.94
2023-06-16T10:36:24.515Z,99746.25
2023-06-16T10:39:02.605Z,99751.84
2023-06-16T10:41:30.478Z,99738.50
2023-06-16T10:44:17.754Z,99745.22
2023-06-16T10:46:45.066Z,99745.56
2023-06-16T10:49:13.293Z,99739.63
2023-06-16T10:51:45.852Z,99745.47
2023-06-16T10:54:34.939Z,99742.53
2023-06-16T11:00:02.686Z,99733.41
2023-06-16T11:02:34.354Z,99738.72
2023-06-16T11:05:15.792Z,99742.06
2023-06-16T11:07:44.934Z,99737.88
2023-06-16T11:10:19.701Z,99727.81
2023-06-16T11:12:48.314Z,99728.44
2023-06-16T11:15:15.611Z,99733.13
2023-06-16T11:17:44.098Z,99735.94
2023-06-16T11:20:13.159Z,99732.25
2023-06-16T11:22:41.341Z,99726.81
2023-06-16T11:25:09.225Z,99724.16
2023-06-16T11:27:38.906Z,99730.56
2023-06-16T11:30:07.638Z,99725.69
2023-06-16T11:32:36.091Z,99727.69
2023-06-16T11:35:05.484Z,99727.75
2023-06-16T11:37:47.360Z,99719.69
2023-06-16T11:40:19.575Z,99715.22
2023-06-16T11:42:56.107Z,99722.16
2023-06-16T11:45:23.872Z,99717.81
2023-06-16T11:47:51.676Z,99720.50
2023-06-16T11:50:20.357Z,99716.00
2023-06-16T11:52:48.513Z,99722.66
2023-06-16T11:55:15.626Z,99716.16
2023-06-16T11:57:42.742Z,99720.56
2023-06-16T12:00:13.879Z,99720.38
2023-06-16T12:02:46.715Z,99716.75
2023-06-16T12:05:24.215Z,99715.28
2023-06-16T12:07:51.319Z,99709.16
2023-06-16T12:10:19.153Z,99713.50
2023-06-16T12:12:47.512Z,99708.28
2023-06-16T12:15:18.123Z,99708.97
2023-06-16T12:17:46.124Z,99708.53
2023-06-16T12:20:14.885Z,99698.94
2023-06-16T12:22:42.018Z,99705.50
2023-06-16T12:25:13.757Z,99713.88
2023-06-16T12:27:44.938Z,99705.09
2023-06-16T12:30:13.782Z,99704.28
2023-06-16T12:32:43.628Z,99699.44
2023-06-16T12:35:11.038Z,99704.81
2023-06-16T12:37:41.389Z,99702.09
2023-06-16T12:40:11.369Z,99692.91
2023-06-16T12:42:41.385Z,99691.72
2023-06-16T12:45:10.532Z,99687.69
2023-06-16T12:47:39.165Z,99688.56
2023-06-16T12:50:09.776Z,99684.66
2023-06-16T12:52:36.982Z,99685.44
2023-06-16T12:55:05.139Z,99687.38
2023-06-16T12:57:34.496Z,99685.94
2023-06-16T13:00:01.811Z,99685.13
2023-06-16T13:02:29.867Z,99677.59
2023-06-16T13:04:57.817Z,99678.38
2023-06-16T13:10:23.834Z,99679.81
2023-06-16T13:12:50.888Z,99679.28
2023-06-16T13:15:17.955Z,99678.91
2023-06-16T13:17:45.341Z,99669.91
2023-06-16T13:20:13.316Z,99680.41
2023-06-16T13:22:40.281Z,99677.41
2023-06-16T13:25:07.895Z,99675.34
2023-06-16T13:27:36.412Z,99663.72
2023-06-16T13:30:03.752Z,99667.53
2023-06-16T13:32:31.144Z,99664.88
2023-06-16T13:34:58.067Z,99665.91
2023-06-16T13:37:24.956Z,99658.03
2023-06-16T13:39:51.938Z,99662.59
2023-06-16T13:42:18.895Z,99650.94
2023-06-16T13:44:47.328Z,99657.16
2023-06-16T13:47:14.321Z,99651.81
2023-06-16T13:49:41.338Z,99645.97
2023-06-16T13:52:09.145Z,99645.34
2023-06-16T13:54:36.898Z,99645.75
2023-06-16T13:57:04.485Z,99633.97
2023-06-16T13:59:31.369Z,99646.41
2023-06-16T14:02:01.213Z,99642.16
2023-06-16T14:04:28.657Z,99641.97
2023-06-16T14:06:57.609Z,99642.34
2023-06-16T14:09:25.005Z,99636.00
2023-06-16T14:11:52.177Z,99633.19
2023-06-16T14:14:19.084Z,99623.19
2023-06-16T14:16:47.038Z,99625.28
2023-06-16T14:19:15.517Z,99623.06
2023-06-16T14:21:42.878Z,99619.34
2023-06-16T14:24:09.897Z,99627.78
2023-06-16T14:26:37.667Z,99629.03
2023-06-16T14:29:04.553Z,99615.78
2023-06-16T14:31:31.480Z,99616.47
2023-06-16T14:33:58.376Z,99610.06
2023-06-16T14:36:26.646Z,99611.28
2023-06-16T14:38:53.792Z,99610.78
2023-06-16T14:41:21.012Z,99615.50
2023-06-16T14:43:48.326Z,99612.53
2023-06-16T14:46:15.406Z,99600.41
2023-06-16T14:48:43.476Z,99597.81
2023-06-16T14:51:10.504Z,99605.34
2023-06-16T14:53:38.889Z,99609.44
2023-06-16T14:56:06.898Z,99602.75
2023-06-16T14:58:33.963Z,99605.34
2023-06-16T15:01:00.898Z,99602.72
2023-06-16T15:03:27.984Z,99603.03
2023-06-16T15:05:55.225Z,99601.00
2023-06-16T15:08:22.177Z,99605.91
2023-06-16T15:10:50.516Z,99600.00
2023-06-16T15:13:18.045Z,99591.31
2023-06-16T15:15:45.287Z,99595.72
2023-06-16T15:18:12.259Z,99597.66
2023-06-16T15:20:39.200Z,99601.66
2023-06-16T15:23:06.129Z,99593.66
2023-06-16T15:25:33.963Z,99585.75
2023-06-16T15:28:11.606Z,99595.28
2023-06-16T15:30:40.560Z,99587.47
2023-06-16T15:33:07.946Z,99590.06
2023-06-16T15:35:34.999Z,99592.44
2023-06-16T15:38:01.915Z,99590.59
2023-06-16T15:40:28.745Z,99585.91
2023-06-16T15:43:04.583Z,99585.44
2023-06-16T15:45:31.626Z,99581.72
2023-06-16T15:47:58.633Z,99578.59
2023-06-16T15:50:27.302Z,99585.66
2023-06-16T15:52:54.437Z,99578.44
2023-06-16T15:55:21.394Z,99580.03
2023-06-16T15:57:48.338Z,99574.44
2023-06-16T16:00:17.374Z,99574.44
2023-06-16T16:02:45.263Z,99573.81
2023-06-16T16:05:12.349Z,99575.78
2023-06-16T16:08:14.324Z,99565.84
2023-06-16T16:10:41.528Z,99565.50
2023-06-16T16:13:09.109Z,99566.94
2023-06-16T16:15:37.639Z,99566.59
2023-06-16T16:18:05.116Z,99568.59
2023-06-16T16:20:32.200Z,99566.75
2023-06-16T16:22:59.198Z,99573.31
2023-06-16T16:25:26.848Z,99567.47
2023-06-16T16:27:55.117Z,99562.91
2023-06-16T16:30:22.726Z,99559.78
2023-06-16T16:32:51.351Z,99561.56
2023-06-16T16:35:19.871Z,99562.28
2023-06-16T16:37:47.370Z,99567.63
2023-06-16T16:40:15.419Z,99561.94
2023-06-16T16:42:43.219Z,99559.13
2023-06-16T16:45:11.355Z,99564.53
2023-06-16T16:47:38.598Z,99563.38
2023-06-16T16:50:08.419Z,99559.09
2023-06-16T16:52:35.860Z,99560.22
2023-06-16T16:55:04.285Z,99562.03
2023-06-16T16:57:31.461Z,99564.78
2023-06-16T16:59:58.522Z,99559.53
2023-06-16T17:02:26.030Z,99562.66
2023-06-16T17:04:53.352Z,99562.06
2023-06-16T17:07:21.837Z,99566.00
2023-06-16T17:09:49.152Z,99573.88
2023-06-16T17:12:16.170Z,99574.69
2023-06-16T17:14:44.464Z,99578.28
2023-06-16T17:17:12.172Z,99573.88
2023-06-16T17:19:39.077Z,99575.53
2023-06-16T17:22:06.911Z,99579.63
2023-06-16T17:24:35.329Z,99579.56
2023-06-16T17:27:02.332Z,99583.97
2023-06-16T17:29:29.254Z,99576.78
2023-06-16T17:31:56.177Z,99577.31
2023-06-16T17:34:23.379Z,99584.28
2023-06-16T17:36:50.308Z,99579.22
2023-06-16T17:39:18.036Z,99588.66
2023-06-16T17:41:46.988Z,99583.72
2023-06-16T17:44:16.907Z,99587.09
2023-06-16T17:46:44.009Z,99589.50
2023-06-16T17:49:10.962Z,99595.47
2023-06-16T17:51:37.898Z,99591.47
2023-06-16T17:54:05.233Z,99593.78
2023-06-16T17:56:33.460Z,99598.16
2023-06-16T17:59:02.454Z,99597.50
2023-06-16T18:01:30.022Z,99597.19
2023-06-16T18:03:57.908Z,99595.69
2023-06-16T18:06:24.875Z,99594.84
2023-06-16T18:08:51.918Z,99593.97
2023-06-16T18:11:18.913Z,99599.31
2023-06-16T18:13:46.110Z,99593.56
2023-06-16T18:16:14.836Z,99589.50
2023-06-16T18:18:41.781Z,99591.56
2023-06-16T18:21:09.031Z,99588.50
2023-06-16T18:23:35.954Z,99600.66
2023-06-16T18:26:03.460Z,99590.59
2023-06-16T18:28:30.423Z,99599.84
2023-06-16T18:30:58.950Z,99604.03
2023-06-16T18:33:27.409Z,99593.47
2023-06-16T18:35:54.429Z,99597.53
2023-06-16T18:38:21.354Z,99596.63
2023-06-16T18:40:48.394Z,99597.38
2023-06-16T18:43:16.408Z,99592.63
2023-06-16T18:45:43.315Z,99595.00
2023-06-16T18:48:10.556Z,99603.50
2023-06-16T18:50:38.848Z,99600.41
2023-06-16T18:53:05.809Z,99598.16
2023-06-16T18:55:32.790Z,99607.69
2023-06-16T18:57:59.977Z,99601.84
2023-06-16T19:00:26.906Z,99599.25
2023-06-16T19:02:54.195Z,99604.28
2023-06-16T19:05:21.383Z,99602.63
2023-06-16T19:08:01.144Z,99608.97
2023-06-16T19:10:28.298Z,99614.81
2023-06-16T19:12:55.313Z,99608.66
2023-06-16T19:15:22.223Z,99606.72
2023-06-16T19:17:49.460Z,99613.94
2023-06-16T19:20:16.760Z,99615.66
2023-06-16T19:22:44.084Z,99611.75
2023-06-16T19:25:12.457Z,99620.13
2023-06-16T19:27:39.769Z,99617.06
2023-06-16T19:30:07.853Z,99626.97
2023-06-16T19:33:27.161Z,99623.28
2023-06-16T19:35:54.848Z,99628.63
2023-06-16T19:38:24.164Z,99638.97
2023-06-16T19:40:52.693Z,99639.16
2023-06-16T19:43:20.169Z,99630.50
2023-06-16T19:45:47.152Z,99644.09
2023-06-16T19:48:14.219Z,99646.78
2023-06-16T19:50:41.363Z,99651.22
2023-06-16T19:53:08.390Z,99655.63
2023-06-16T19:55:45.213Z,99653.97
2023-06-16T19:58:20.309Z,99663.09
2023-06-16T20:00:49.742Z,99659.94
2023-06-16T20:03:16.703Z,99664.28
2023-06-16T20:05:44.381Z,99668.00
2023-06-16T20:08:11.368Z,99668.44
2023-06-16T20:10:38.253Z,99680.34
2023-06-16T20:13:05.297Z,99674.03
2023-06-16T20:15:33.608Z,99682.59
2023-06-16T20:18:00.686Z,99683.66
2023-06-16T20:20:28.342Z,99679.88
2023-06-16T20:22:56.118Z,99683.25
2023-06-16T20:25:23.279Z,99682.22
2023-06-16T20:27:53.634Z,99676.25
2023-06-16T20:30:21.185Z,99682.59
2023-06-16T20:32:50.969Z,99684.41
2023-06-16T20:35:20.768Z,99686.94
2023-06-16T20:37:48.099Z,99687.59
2023-06-16T20:40:15.057Z,99682.69
2023-06-16T20:42:42.370Z,99688.50
2023-06-16T20:45:10.580Z,99682.50
2023-06-16T20:47:38.257Z,99678.91
2023-06-16T20:50:09.461Z,99689.91
2023-06-16T20:52:36.362Z,99686.06
2023-06-16T20:55:06.621Z,99681.16
2023-06-16T20:57:33.496Z,99680.31
2023-06-16T21:00:00.611Z,99685.81
2023-06-16T21:02:27.567Z,99689.69
2023-06-16T21:04:57.673Z,99693.53
2023-06-16T21:07:26.108Z,99685.84
2023-06-16T21:09:52.989Z,99691.31
2023-06-16T21:12:21.223Z,99699.59
2023-06-16T21:14:48.195Z,99704.53
2023-06-16T21:17:15.168Z,99703.72
2023-06-16T21:19:46.579Z,99696.88
2023-06-16T21:22:14.889Z,99703.16
2023-06-16T21:24:43.161Z,99705.59
2023-06-16T21:27:10.456Z,99705.88
2023-06-16T21:29:37.551Z,99708.34
2023-06-16T21:32:05.250Z,99699.56
2023-06-16T21:34:32.151Z,99702.31
2023-06-16T21:36:59.708Z,99706.16
2023-06-16T21:39:26.919Z,99703.69
2023-06-16T21:41:55.210Z,99696.00
2023-06-16T21:44:22.139Z,99696.00
2023-06-16T21:46:49.359Z,99696.81
2023-06-16T21:49:16.349Z,99702.53
2023-06-16T21:51:43.322Z,99698.34
2023-06-16T21:54:10.182Z,99704.28
2023-06-16T21:56:37.263Z,99703.75
2023-06-16T21:59:05.578Z,99700.75
2023-06-16T22:01:33.956Z,99706.44
2023-06-16T22:04:01.216Z,99697.69
2023-06-16T22:06:28.360Z,99696.63
2023-06-16T22:08:55.353Z,99694.44
2023-06-16T22:11:22.370Z,99694.47
2023-06-16T22:13:49.254Z,99693.94
2023-06-16T22:16:17.809Z,99697.47
2023-06-16T22:18:44.927Z,99698.03
2023-06-16T22:21:12.100Z,99694.38
2023-06-16T22:23:39.027Z,99688.34
2023-06-16T22:26:05.963Z,99691.56
2023-06-16T22:28:33.333Z,99693.41
2023-06-16T22:31:02.955Z,99690.69
2023-06-16T22:33:31.609Z,99686.00
2023-06-16T22:35:59.901Z,99683.06
2023-06-16T22:38:26.798Z,99684.47
2023-06-16T22:40:53.713Z,99683.94
2023-06-16T22:43:20.655Z,99692.09
2023-06-16T22:45:47.680Z,99693.19
2023-06-16T22:48:14.810Z,99686.63
2023-06-16T22:50:43.571Z,99685.22
2023-06-16T22:53:10.402Z,99695.81
2023-06-16T22:55:37.520Z,99681.88
2023-06-16T22:58:04.420Z,99689.31
2023-06-16T23:00:31.485Z,99693.69
2023-06-16T23:02:58.499Z,99691.88
2023-06-16T23:05:25.554Z,99706.03
2023-06-16T23:07:53.916Z,99704.44
2023-06-16T23:10:21.584Z,99691.66
2023-06-16T23:12:48.685Z,99692.69
2023-06-16T23:15:15.575Z,99692.09
2023-06-16T23:17:42.635Z,99684.94
2023-06-16T23:20:11.669Z,99689.88
2023-06-16T23:22:38.607Z,99685.72
2023-06-16T23:25:09.668Z,99689.34
2023-06-16T23:27:36.628Z,99686.41
2023-06-16T23:30:04.415Z,99687.84
2023-06-16T23:32:31.835Z,99685.97
2023-06-16T23:35:01.406Z,99678.31
2023-06-16T23:37:28.740Z,99682.19
2023-06-16T23:39:55.717Z,99685.78
2023-06-16T23:42:24.145Z,99680.00
2023-06-16T23:44:51.414Z,99681.13
2023-06-16T23:47:18.408Z,99674.94
2023-06-16T23:49:45.302Z,99673.09
2023-06-16T23:52:12.170Z,99675.94
2023-06-16T23:54:47.456Z,99680.31
2023-06-16T23:57:18.566Z,99679.19
2023-06-16T23:59:47.262Z,99684.66
